CST,Max TemperatureF,Mean TemperatureF,Min TemperatureF,Max Dew PointF,MeanDew PointF,Min DewpointF,Max Humidity, Mean Humidity, Min Humidity, Max Sea Level PressureIn, Mean Sea Level PressureIn, Min Sea Level PressureIn, Max VisibilityMiles, Mean VisibilityMiles, Min VisibilityMiles, Max Wind SpeedMPH, Mean Wind SpeedMPH, Max Gust SpeedMPH,PrecipitationIn, CloudCover, Events, WindDirDegrees
2012-12-1,74,58,41,52,45,41,100,71,41,30.33,30.28,30.25,10,10,7,12,2,16,0.00,1,,141
2012-12-2,76,58,40,58,48,39,96,69,41,30.36,30.29,30.24,10,10,10,12,2,24,0.00,2,,180
2012-12-3,77,60,43,55,48,42,100,69,38,30.30,30.26,30.21,10,10,10,15,3,21,0.00,2,,160
2012-12-4,78,60,42,58,50,41,100,70,39,30.31,30.24,30.20,10,10,10,15,2,18,0.00,1,,203
2012-12-5,76,61,45,56,48,45,96,67,38,30.23,30.16,30.08,10,7,0,13,2,23,0.00,4,Fog,213
2012-12-6,76,61,45,55,51,44,100,72,44,30.11,30.05,30.01,10,9,5,13,4,17,0.00,2,,88
2012-12-7,66,58,49,56,53,48,100,84,67,30.08,30.01,29.97,8,5,0,10,4,15,0.00,5,Fog,110
2012-12-8,71,61,51,63,57,52,100,87,73,30.06,30.01,29.96,7,2,0,9,2,12,T,5,Fog-Rain,156
2012-12-9,74,67,59,63,59,54,100,75,49,30.10,30.04,29.96,10,8,1,15,4,25,0.00,5,,186
2012-12-10,74,62,50,66,61,48,100,84,68,29.95,29.84,29.77,10,6,0,22,8,26,0.52,7,Fog-Rain,223
2012-12-11,50,45,40,48,38,33,93,79,65,30.18,30.04,29.91,10,7,2,15,7,20,0.00,5,,334
2012-12-12,52,42,32,38,34,31,100,75,50,30.24,30.18,30.12,9,6,3,12,4,15,T,2,,12
2012-12-13,62,46,29,41,36,28,96,68,39,30.35,30.29,30.25,10,6,2,13,3,17,0.00,1,,26
2012-12-14,64,47,30,45,38,28,100,74,48,30.36,30.30,30.17,10,6,1,13,3,16,0.00,4,,84
2012-12-15,67,57,47,53,48,44,86,71,56,30.21,30.12,30.04,10,9,7,12,4,14,0.00,4,,136
2012-12-16,70,62,53,64,58,51,100,87,73,30.03,29.96,29.86,10,6,1,16,6,21,0.40,8,Rain,182
2012-12-17,62,59,55,60,56,54,100,93,86,29.90,29.84,29.75,10,4,0,15,4,25,1.55,7,Fog-Rain-Thunderstorm,237
2012-12-18,66,51,36,56,44,30,93,61,28,30.05,29.96,29.84,10,6,1,9,2,16,0.00,0,,289
2012-12-19,72,52,31,47,39,31,96,64,31,30.12,30.06,30.02,10,9,5,12,2,17,0.00,0,,172
2012-12-20,70,57,43,66,53,27,97,70,43,30.10,29.88,29.77,10,6,0,26,12,35,0.79,6,Fog-Rain,213
2012-12-21,51,44,36,23,15,8,57,38,18,30.30,30.21,30.10,10,10,10,25,12,31,0.00,0,,298
2012-12-22,57,41,24,28,18,7,85,51,17,30.39,30.30,30.26,10,10,10,17,4,22,0.00,0,,324
2012-12-23,56,42,27,40,31,25,92,65,38,30.27,30.18,30.06,10,10,10,8,2,10,0.00,2,,196
2012-12-24,71,60,48,61,53,41,100,77,53,30.04,29.93,29.86,10,5,0,13,5,18,0.35,6,Fog-Rain-Thunderstorm,219
2012-12-25,66,60,53,63,59,52,100,97,93,29.95,29.81,29.54,10,3,0,9,5,37,1.53,8,Fog-Rain-Thunderstorm,125
2012-12-26,99,68,36,43,32,28,71,68,64,30.12,29.90,29.64,10,10,10,24,14,37,0.00,8,,285
2012-12-27,48,39,30,31,29,28,92,71,50,30.18,30.13,30.10,10,8,3,18,6,23,0.00,4,,333
2012-12-28,54,41,28,46,39,27,93,72,50,30.10,29.92,29.78,10,4,1,25,4,30,0.55,5,Rain,97
2012-12-29,49,41,32,47,38,22,93,76,59,30.36,30.01,29.79,10,7,1,23,10,30,T,8,,307
2012-12-30,51,39,26,29,24,21,92,62,32,30.50,30.42,30.36,10,8,4,13,4,16,0.00,0,,345
2012-12-31,61,45,28,47,38,27,92,69,46,30.39,30.29,30.14,10,8,6,9,2,13,0.00,4,,172